Mount Holly, New Jersey
Current Conditions -  °F | °C
As of 8:54 AM on Sunday 25 Jan 2015 (Local Time) from KVAY Reporting Station
Broken Clouds Broken Clouds  
Wind Chill: 30°   Ceiling: 6000
Heat Index: 38°   Visibility: 10mi
Dew Point: 28°   Wind: 12mph
Humidity: 68%   Direction: 230°SW
Pressure: 29.78"   Gusts: NA
Location:  39.99°N, 74.79°W
Report Text: KVAY 251354Z AUTO 23010KT 10SM BKN060 03/M02 A2978 RMK AO2 SLP085 T00331022
Loading
Personal Weather Stations






























Interactive Weather Map New forecast layout! Learn more

10-Day Weather Forecast

Advertisements
Track Severe Weather on mobile